Time;durP1;ratioP1;P1;durP2;ratioP2;P2;SDS_P1;SDS_P2;PMS_P1;PMS_P2;Temp;Humidity;BMP_temperature;BMP_pressure;BME280_temperature;BME280_humidity;BME280_pressure;Samples;Min_cycle;Max_cycle;Signal;HPM_P1;HPM_P2
2022/07/30 00:01:38;;;;;;;17.05;3.97;;;;;;;19.43;70.75;101449.22;4991854;28;20081;-73
2022/07/30 00:04:04;;;;;;;12.02;4.03;;;;;;;19.57;70.37;101442.78;4995081;28;20036;-72
2022/07/30 00:06:29;;;;;;;14.98;4.20;;;;;;;19.55;70.42;101439.38;4994536;28;20022;-73
2022/07/30 00:08:54;;;;;;;12.57;3.42;;;;;;;19.58;70.62;101441.75;5011800;28;20037;-73
2022/07/30 00:11:20;;;;;;;12.75;3.53;;;;;;;19.60;70.56;101439.63;4994188;28;20028;-73
2022/07/30 00:13:46;;;;;;;10.95;3.60;;;;;;;19.47;70.97;101429.41;4987189;28;20026;-72
2022/07/30 00:16:11;;;;;;;15.40;4.20;;;;;;;19.65;70.45;101437.13;4990681;28;20014;-73
2022/07/30 00:18:37;;;;;;;9.93;3.30;;;;;;;19.66;70.19;101438.81;4992721;28;20034;-72
2022/07/30 00:21:02;;;;;;;17.95;3.97;;;;;;;19.50;70.87;101433.66;4990896;28;20109;-72
2022/07/30 00:23:27;;;;;;;12.90;3.97;;;;;;;19.39;71.35;101436.97;5011440;28;20164;-73
2022/07/30 00:25:53;;;;;;;9.55;3.60;;;;;;;19.08;72.29;101443.72;4990130;28;20026;-73
2022/07/30 00:28:18;;;;;;;12.27;3.90;;;;;;;19.09;72.53;101437.19;4990761;28;20384;-73
2022/07/30 00:30:43;;;;;;;17.63;3.95;;;;;;;19.04;72.60;101428.72;4993134;28;20030;-71
2022/07/30 00:33:09;;;;;;;10.43;3.42;;;;;;;19.27;71.72;101433.09;5010253;28;20040;-71
2022/07/30 00:35:34;;;;;;;18.98;4.47;;;;;;;19.09;72.77;101431.69;4993019;28;20018;-71
2022/07/30 00:38:00;;;;;;;14.57;4.15;;;;;;;19.08;72.76;101424.53;4992928;28;20109;-71
2022/07/30 00:40:25;;;;;;;17.38;4.25;;;;;;;19.14;72.49;101420.97;4989044;28;20112;-71
2022/07/30 00:42:50;;;;;;;13.68;4.03;;;;;;;19.12;72.33;101424.97;4993672;28;20052;-71
2022/07/30 00:45:17;;;;;;;13.20;4.03;;;;;;;19.04;72.91;101434.22;4993905;28;20132;-71
2022/07/30 00:47:43;;;;;;;10.52;3.38;;;;;;;19.08;72.56;101430.00;5002453;28;20058;-71
2022/07/30 00:50:11;;;;;;;9.68;4.18;;;;;;;18.85;73.74;101434.91;4993745;28;20073;-71
2022/07/30 00:52:38;;;;;;;11.13;4.25;;;;;;;18.52;75.22;101429.97;4993232;28;20022;-71
2022/07/30 00:55:05;;;;;;;13.63;4.22;;;;;;;18.57;75.04;101432.94;4992923;28;20445;-71
2022/07/30 00:57:30;;;;;;;16.58;4.68;;;;;;;18.61;74.85;101423.28;4992441;28;20096;-71
2022/07/30 00:59:56;;;;;;;14.45;3.97;;;;;;;18.66;74.72;101429.06;5000590;28;20034;-71
2022/07/30 01:02:22;;;;;;;13.07;4.15;;;;;;;18.73;74.35;101425.53;4993968;28;20034;-71
2022/07/30 01:04:47;;;;;;;13.15;4.13;;;;;;;18.72;74.19;101424.69;4993659;28;20542;-72
2022/07/30 01:07:13;;;;;;;13.70;4.35;;;;;;;18.63;74.57;101425.81;4993587;28;20404;-72
2022/07/30 01:09:39;;;;;;;10.27;3.60;;;;;;;18.63;74.57;101426.66;4993541;28;20029;-71
2022/07/30 01:12:06;;;;;;;10.82;3.67;;;;;;;18.68;74.42;101424.22;5006142;28;20092;-71
2022/07/30 01:14:34;;;;;;;12.45;3.55;;;;;;;18.77;74.12;101426.81;4993638;28;20022;-72
2022/07/30 01:17:00;;;;;;;17.40;3.88;;;;;;;18.68;74.38;101413.25;4992039;28;20026;-72
2022/07/30 01:22:44;;;;;;;9.05;3.35;;;;;;;18.78;74.02;101412.91;5011101;28;20018;-72
2022/07/30 01:25:18;;;;;;;14.73;4.03;;;;;;;18.67;74.36;101411.56;4967283;28;20034;-72
2022/07/30 01:28:12;;;;;;;9.05;3.20;;;;;;;18.71;74.21;101406.50;4974491;28;20053;-72
2022/07/30 01:30:40;;;;;;;15.00;3.92;;;;;;;18.74;74.08;101395.16;4994060;28;20044;-71
2022/07/30 01:33:10;;;;;;;12.10;3.38;;;;;;;18.90;73.60;101404.97;4994159;28;20037;-72
2022/07/30 01:35:37;;;;;;;15.75;4.05;;;;;;;18.89;73.47;101403.28;5000329;28;20117;-72
2022/07/30 01:38:04;;;;;;;11.90;3.60;;;;;;;19.01;72.94;101409.91;5004818;28;20041;-71
2022/07/30 01:40:30;;;;;;;11.77;3.40;;;;;;;18.94;72.97;101403.53;5006688;28;20025;-72
2022/07/30 01:42:57;;;;;;;13.43;4.22;;;;;;;18.83;73.32;101410.41;4993002;28;20018;-71
2022/07/30 01:45:25;;;;;;;12.50;3.33;;;;;;;18.86;73.28;101403.69;4993106;28;20025;-72
2022/07/30 01:47:53;;;;;;;8.88;2.90;;;;;;;18.78;73.36;101401.94;5001265;28;20078;-72
2022/07/30 01:50:20;;;;;;;12.80;3.58;;;;;;;18.86;73.03;101398.19;4993965;28;20037;-71
2022/07/30 01:52:48;;;;;;;9.82;3.28;;;;;;;18.81;73.19;101401.53;4993445;28;20017;-72
2022/07/30 01:55:17;;;;;;;19.30;4.38;;;;;;;18.85;73.32;101407.47;4993791;28;20021;-71
2022/07/30 01:57:45;;;;;;;12.13;4.10;;;;;;;18.65;73.79;101396.31;4993285;28;20022;-71
2022/07/30 02:00:11;;;;;;;10.32;3.08;;;;;;;18.74;73.49;101394.31;5006456;28;20524;-72
2022/07/30 02:02:39;;;;;;;15.38;3.97;;;;;;;18.67;74.00;101392.34;4992995;28;20097;-71
2022/07/30 02:05:05;;;;;;;17.30;3.80;;;;;;;18.64;73.95;101406.41;4992468;28;20061;-71
2022/07/30 02:07:41;;;;;;;13.13;4.45;;;;;;;18.47;74.54;101394.06;4997045;28;20109;-71
2022/07/30 02:10:16;;;;;;;18.00;3.58;;;;;;;18.37;75.03;101399.00;4996658;28;20041;-71
2022/07/30 02:12:47;;;;;;;18.58;4.20;;;;;;;18.25;75.67;101400.56;5004097;28;20056;-71
2022/07/30 02:15:20;;;;;;;14.85;3.53;;;;;;;18.14;75.97;101400.06;4997144;28;20499;-72
2022/07/30 02:17:59;;;;;;;14.20;3.95;;;;;;;18.29;75.43;101390.94;5003460;28;20388;-71
2022/07/30 02:20:28;;;;;;;12.35;3.88;;;;;;;18.42;74.62;101396.53;4992869;28;20030;-72
2022/07/30 02:23:01;;;;;;;18.73;4.00;;;;;;;18.57;74.15;101383.56;5011234;28;20029;-72
2022/07/30 02:25:27;;;;;;;9.10;3.97;;;;;;;18.56;73.78;101392.00;4992071;28;20021;-71
2022/07/30 02:27:57;;;;;;;15.25;3.78;;;;;;;18.60;73.65;101396.06;5014152;28;20161;-72
2022/07/30 02:30:26;;;;;;;13.23;3.40;;;;;;;18.59;73.51;101386.16;4980656;28;20037;-72
2022/07/30 02:32:57;;;;;;;22.05;3.70;;;;;;;18.49;73.83;101391.94;4968271;28;20102;-71
2022/07/30 02:35:23;;;;;;;16.38;4.03;;;;;;;18.52;73.62;101386.09;4968462;28;20055;-72
2022/07/30 02:37:51;;;;;;;13.50;3.78;;;;;;;18.66;73.23;101387.91;4970167;28;20077;-71
2022/07/30 02:40:19;;;;;;;12.93;3.38;;;;;;;18.65;72.97;101388.94;4982204;28;20029;-71
2022/07/30 02:42:46;;;;;;;19.05;4.22;;;;;;;18.57;73.31;101394.53;4980757;28;20091;-71
2022/07/30 02:45:14;;;;;;;10.25;3.42;;;;;;;18.74;72.81;101388.81;5004833;28;20033;-71
2022/07/30 02:47:41;;;;;;;12.75;3.53;;;;;;;18.81;72.50;101392.44;4996461;28;20508;-71
2022/07/30 02:50:09;;;;;;;8.80;3.00;;;;;;;18.79;72.52;101398.16;5012915;28;20116;-71
2022/07/30 02:52:36;;;;;;;14.27;4.05;;;;;;;18.85;72.64;101402.84;4997377;28;20090;-71
2022/07/30 02:55:03;;;;;;;9.63;3.55;;;;;;;18.87;72.58;101405.38;4992808;28;20106;-71
2022/07/30 02:57:30;;;;;;;19.58;3.83;;;;;;;19.05;71.59;101408.47;5002050;23;20453;-70
2022/07/30 02:59:57;;;;;;;8.73;3.50;;;;;;;19.02;71.55;101408.84;4963918;28;20114;-69
2022/07/30 03:02:23;;;;;;;6.45;2.72;;;;;;;19.08;71.32;101408.06;4965302;28;20054;-69
2022/07/30 03:04:49;;;;;;;15.55;3.70;;;;;;;18.95;71.57;101407.97;4958302;28;20099;-69
2022/07/30 03:07:15;;;;;;;13.80;3.67;;;;;;;18.92;72.01;101402.88;4975472;28;20035;-73
2022/07/30 03:09:43;;;;;;;14.13;3.60;;;;;;;18.94;72.25;101406.28;4983641;28;20034;-74
2022/07/30 03:12:11;;;;;;;9.18;3.30;;;;;;;18.96;71.82;101404.16;4983070;28;20046;-71
2022/07/30 03:14:37;;;;;;;9.15;3.30;;;;;;;18.95;71.56;101402.47;4983114;28;20026;-73
2022/07/30 03:17:06;;;;;;;13.18;3.17;;;;;;;18.90;71.81;101399.47;4975310;28;20038;-71
2022/07/30 03:19:35;;;;;;;8.13;2.95;;;;;;;18.92;71.52;101394.66;4983252;28;20037;-73
2022/07/30 03:22:03;;;;;;;11.55;3.65;;;;;;;18.93;71.51;101394.44;4991492;28;20029;-72
2022/07/30 03:24:31;;;;;;;5.78;3.15;;;;;;;18.94;71.42;101395.28;4990896;28;20512;-72
2022/07/30 03:26:58;;;;;;;12.65;4.18;;;;;;;19.05;71.04;101389.25;4990553;28;20049;-75
2022/07/30 03:29:25;;;;;;;15.85;3.53;;;;;;;18.92;71.48;101397.41;4979779;28;20050;-72
2022/07/30 03:31:52;;;;;;;10.23;3.30;;;;;;;18.89;71.58;101392.28;4966771;28;20014;-73
2022/07/30 03:34:19;;;;;;;8.43;2.95;;;;;;;18.81;71.92;101396.03;4979484;28;20048;-73
2022/07/30 03:36:44;;;;;;;10.90;3.60;;;;;;;18.90;71.50;101394.84;5007841;28;20033;-72
2022/07/30 03:39:11;;;;;;;8.13;3.08;;;;;;;18.80;71.90;101396.25;4991684;28;20026;-72
2022/07/30 03:41:38;;;;;;;13.55;3.63;;;;;;;18.63;72.36;101393.75;4975580;28;20173;-72
2022/07/30 03:44:04;;;;;;;7.18;3.35;;;;;;;18.68;72.12;101396.78;4972708;28;20472;-72
2022/07/30 03:46:31;;;;;;;11.27;3.70;;;;;;;18.69;72.06;101398.47;4998307;28;20426;-75
2022/07/30 03:48:57;;;;;;;7.75;3.35;;;;;;;18.63;72.38;101388.28;4972226;28;20037;-71
2022/07/30 03:51:23;;;;;;;9.07;3.05;;;;;;;18.64;72.31;101392.69;4979557;28;20026;-72
2022/07/30 03:53:50;;;;;;;17.67;3.88;;;;;;;18.64;72.12;101395.44;4981658;28;20030;-74
2022/07/30 03:56:16;;;;;;;18.15;4.43;;;;;;;18.43;72.60;101387.25;4977888;28;20026;-74
2022/07/30 03:58:42;;;;;;;10.88;3.60;;;;;;;18.34;73.25;101393.94;4984267;28;20473;-72
2022/07/30 04:01:07;;;;;;;8.02;3.28;;;;;;;18.33;72.94;101397.72;4983791;28;20032;-72
2022/07/30 04:03:33;;;;;;;8.10;3.17;;;;;;;18.37;73.08;101388.88;4981780;28;20066;-71
2022/07/30 04:05:59;;;;;;;8.90;3.35;;;;;;;18.62;71.91;101392.06;4989029;28;20053;-72
2022/07/30 04:08:26;;;;;;;8.30;3.08;;;;;;;18.55;72.23;101385.69;4981846;28;20428;-72
2022/07/30 04:10:51;;;;;;;13.45;3.35;;;;;;;18.59;71.61;101386.97;4989189;28;20019;-71
2022/07/30 04:13:17;;;;;;;12.35;3.28;;;;;;;18.37;72.45;101382.56;4982765;28;20105;-75
2022/07/30 04:15:57;;;;;;;15.23;3.58;;;;;;;18.35;72.48;101381.91;4981746;28;20105;-75
2022/07/30 04:18:28;;;;;;;10.45;3.20;;;;;;;18.44;72.21;101384.31;4983000;28;20385;-73
2022/07/30 04:20:54;;;;;;;10.82;4.25;;;;;;;18.35;72.58;101390.97;4981759;28;20392;-73
2022/07/30 04:23:20;;;;;;;7.35;3.25;;;;;;;18.46;72.31;101386.88;4980129;28;20027;-72
2022/07/30 04:25:46;;;;;;;16.40;3.55;;;;;;;18.43;72.39;101387.25;4983940;28;20014;-72
2022/07/30 04:28:12;;;;;;;9.52;3.45;;;;;;;18.50;71.98;101382.66;4988503;28;20057;-73
2022/07/30 04:30:40;;;;;;;10.73;3.47;;;;;;;18.52;71.82;101391.56;4982033;28;20469;-72
2022/07/30 04:33:07;;;;;;;15.30;3.08;;;;;;;18.38;72.15;101400.69;4972738;28;20019;-72
2022/07/30 04:35:34;;;;;;;10.57;3.00;;;;;;;18.50;71.64;101404.59;4983119;28;20018;-72
2022/07/30 04:38:01;;;;;;;8.80;2.80;;;;;;;18.51;71.46;101406.31;5000457;28;20031;-72
2022/07/30 04:40:27;;;;;;;7.43;2.97;;;;;;;18.31;72.00;101399.78;4974528;28;20030;-72
2022/07/30 04:42:52;;;;;;;7.75;3.08;;;;;;;18.38;71.86;101397.97;4982888;28;20026;-75
2022/07/30 04:45:19;;;;;;;6.53;2.60;;;;;;;18.40;71.86;101393.16;4982506;28;20026;-73
2022/07/30 04:47:45;;;;;;;13.93;3.60;;;;;;;18.48;71.25;101395.75;4991327;28;20038;-70
2022/07/30 04:50:12;;;;;;;14.65;3.30;;;;;;;18.24;72.19;101412.59;4990433;28;20038;-71
2022/07/30 04:52:38;;;;;;;12.98;3.40;;;;;;;18.35;71.93;101401.09;4984742;28;20050;-70
2022/07/30 04:55:06;;;;;;;9.48;3.25;;;;;;;18.37;71.71;101404.50;4986408;28;20030;-69
2022/07/30 04:57:34;;;;;;;7.07;2.60;;;;;;;18.39;71.86;101402.41;4988648;28;20031;-70
2022/07/30 05:00:00;;;;;;;10.02;3.90;;;;;;;18.47;71.34;101404.19;4983370;28;20054;-70
2022/07/30 05:02:28;;;;;;;11.57;2.80;;;;;;;18.35;71.82;101401.09;4980714;28;20073;-72
2022/07/30 05:04:56;;;;;;;8.13;3.80;;;;;;;18.54;71.10;101411.41;4983925;28;20022;-72
2022/07/30 05:07:22;;;;;;;12.52;3.47;;;;;;;18.62;70.52;101413.16;4984233;28;20078;-71
2022/07/30 05:09:48;;;;;;;8.73;3.30;;;;;;;18.65;70.31;101413.63;4974961;28;20105;-72
2022/07/30 05:12:14;;;;;;;10.82;2.95;;;;;;;18.68;70.29;101413.25;4990110;28;20049;-70
2022/07/30 05:14:40;;;;;;;15.48;3.30;;;;;;;18.57;70.35;101411.00;4989662;28;20030;-70
2022/07/30 05:17:06;;;;;;;10.85;3.72;;;;;;;18.65;70.52;101407.28;4971713;28;20027;-70
2022/07/30 05:19:31;;;;;;;9.70;2.80;;;;;;;18.59;70.54;101414.41;4972676;28;20076;-70
2022/07/30 05:21:56;;;;;;;17.48;3.40;;;;;;;18.77;70.02;101410.34;4990176;28;20061;-71
2022/07/30 05:24:22;;;;;;;9.35;3.03;;;;;;;18.76;69.98;101414.16;4981776;28;20019;-71
2022/07/30 05:26:47;;;;;;;10.80;3.15;;;;;;;18.74;69.73;101414.34;4984589;28;20034;-70
2022/07/30 05:29:13;;;;;;;19.55;3.83;;;;;;;18.92;69.25;101419.34;4965000;28;20081;-72
2022/07/30 05:31:39;;;;;;;6.53;3.00;;;;;;;18.79;70.05;101411.03;4970712;28;20035;-70
2022/07/30 05:34:04;;;;;;;10.55;3.10;;;;;;;18.99;69.13;101425.72;4972863;28;20162;-70
2022/07/30 05:36:30;;;;;;;5.43;2.78;;;;;;;18.97;69.38;101422.31;4982342;28;20057;-70
2022/07/30 05:38:55;;;;;;;8.85;2.78;;;;;;;19.10;68.74;101416.91;4973665;28;20389;-70
2022/07/30 05:41:21;;;;;;;8.05;3.17;;;;;;;19.14;68.84;101423.72;4981102;28;20482;-73
2022/07/30 05:43:46;;;;;;;7.63;2.90;;;;;;;19.04;68.48;101417.75;4984682;28;20038;-70
2022/07/30 05:46:11;;;;;;;10.48;2.80;;;;;;;19.16;68.51;101426.25;4974248;28;20113;-71
2022/07/30 05:48:37;;;;;;;11.07;3.28;;;;;;;18.87;68.86;101422.69;4991375;28;20086;-70
2022/07/30 05:51:03;;;;;;;18.02;3.47;;;;;;;18.96;68.64;101415.13;4979242;28;20018;-70
2022/07/30 05:53:29;;;;;;;9.60;3.30;;;;;;;18.93;68.60;101421.03;4982147;28;20026;-70
2022/07/30 05:55:56;;;;;;;6.95;2.80;;;;;;;19.03;68.46;101421.53;4993267;28;20385;-70
2022/07/30 05:58:21;;;;;;;12.52;3.00;;;;;;;19.17;68.42;101417.84;4990478;28;20132;-72
2022/07/30 06:00:47;;;;;;;13.05;3.08;;;;;;;19.22;68.14;101420.81;4988463;28;20053;-71
2022/07/30 06:03:12;;;;;;;5.20;2.42;;;;;;;19.38;67.76;101425.13;5005807;28;20019;-72
2022/07/30 06:05:38;;;;;;;8.98;2.78;;;;;;;19.35;67.58;101419.19;4985745;28;20026;-70
2022/07/30 06:08:03;;;;;;;11.25;2.88;;;;;;;19.54;66.93;101418.44;4992748;28;20018;-71
2022/07/30 06:10:30;;;;;;;9.75;3.03;;;;;;;19.61;66.67;101415.75;4987426;28;20106;-73
2022/07/30 06:12:55;;;;;;;10.77;3.13;;;;;;;19.66;66.61;101422.34;4988202;28;20044;-73
2022/07/30 06:15:21;;;;;;;7.30;2.75;;;;;;;19.76;66.38;101417.31;4991755;28;20512;-71
2022/07/30 06:17:47;;;;;;;7.18;2.78;;;;;;;19.71;66.73;101419.00;4974680;28;20065;-70
2022/07/30 06:20:14;;;;;;;10.57;2.33;;;;;;;19.65;66.62;101415.16;4973989;28;20022;-71
2022/07/30 06:22:40;;;;;;;9.90;2.97;;;;;;;19.71;66.07;101425.31;4997801;28;20027;-70
2022/07/30 06:25:07;;;;;;;5.78;2.45;;;;;;;19.76;65.94;101417.31;4974854;28;20018;-70
2022/07/30 06:27:33;;;;;;;9.23;2.97;;;;;;;19.75;65.66;101421.09;4981743;28;20125;-72
2022/07/30 06:30:07;;;;;;;14.30;2.78;;;;;;;19.94;65.45;101424.13;4966244;28;20527;-72
2022/07/30 06:32:33;;;;;;;9.15;3.08;;;;;;;20.08;65.55;101420.34;4984705;28;20033;-70
2022/07/30 06:34:59;;;;;;;11.18;2.75;;;;;;;20.16;64.68;101433.94;4978604;28;20101;-70
2022/07/30 06:37:24;;;;;;;9.20;2.78;;;;;;;20.09;64.30;101427.56;4988834;28;20121;-71
2022/07/30 06:39:50;;;;;;;8.40;2.95;;;;;;;20.27;63.67;101441.56;4989936;28;20053;-70
2022/07/30 06:42:15;;;;;;;10.02;2.55;;;;;;;20.25;63.83;101438.19;4983207;28;20058;-70
2022/07/30 06:44:41;;;;;;;10.02;2.83;;;;;;;20.25;63.72;101440.94;4990777;28;20022;-70
2022/07/30 06:47:06;;;;;;;15.32;2.83;;;;;;;20.37;63.13;101434.81;4978017;28;20112;-71
2022/07/30 06:49:32;;;;;;;8.85;2.97;;;;;;;20.28;63.54;101437.78;4986680;28;20026;-71
2022/07/30 06:51:58;;;;;;;14.93;3.15;;;;;;;20.38;63.47;101431.00;4991906;28;20037;-71
2022/07/30 06:54:24;;;;;;;9.13;2.70;;;;;;;20.36;63.84;101430.38;4972735;28;20026;-70
2022/07/30 06:56:49;;;;;;;12.52;7.57;;;;;;;20.30;63.87;101435.66;4990550;28;20077;-71
2022/07/30 06:59:15;;;;;;;9.98;3.45;;;;;;;20.67;62.83;101436.16;4988292;28;20102;-72
2022/07/30 07:01:41;;;;;;;7.93;3.45;;;;;;;20.80;62.79;101441.66;4989550;28;20041;-70
2022/07/30 07:04:06;;;;;;;9.77;2.78;;;;;;;20.67;61.99;101440.78;4991012;28;20026;-70
2022/07/30 07:06:32;;;;;;;27.05;3.20;;;;;;;20.33;62.88;101439.88;4975064;28;20363;-71
2022/07/30 07:08:57;;;;;;;7.13;3.25;;;;;;;20.85;61.67;101433.59;4992309;28;20038;-70
2022/07/30 07:11:22;;;;;;;12.90;2.75;;;;;;;21.04;61.22;101434.66;4975847;28;20030;-71
2022/07/30 07:13:48;;;;;;;5.18;2.65;;;;;;;21.10;60.58;101435.69;4982840;28;20030;-70
2022/07/30 07:16:13;;;;;;;9.80;2.70;;;;;;;21.20;60.40;101441.63;4983696;28;20022;-71
2022/07/30 07:18:38;;;;;;;9.93;3.40;;;;;;;21.35;60.25;101431.25;4993169;28;20089;-71
2022/07/30 07:21:04;;;;;;;9.38;2.35;;;;;;;21.57;59.89;101436.47;4993193;28;20563;-73
2022/07/30 07:23:29;;;;;;;13.95;5.22;;;;;;;21.54;58.97;101434.16;4991455;28;20036;-71
2022/07/30 07:25:55;;;;;;;13.13;2.80;;;;;;;21.62;59.09;101433.91;4983908;28;20023;-70
2022/07/30 07:28:20;;;;;;;32.88;3.15;;;;;;;21.67;57.22;101434.09;4973284;28;20030;-70
2022/07/30 07:30:46;;;;;;;10.93;3.05;;;;;;;21.40;58.84;101425.94;4996764;28;20046;-73
2022/07/30 07:33:11;;;;;;;11.13;2.78;;;;;;;21.30;59.43;101428.28;4968226;28;20034;-73
2022/07/30 07:35:37;;;;;;;10.57;2.72;;;;;;;21.31;59.37;101432.72;4979814;28;20026;-71
2022/07/30 07:38:03;;;;;;;4.30;2.33;;;;;;;21.38;58.86;101433.53;4986509;28;20022;-70
2022/07/30 07:40:28;;;;;;;15.98;3.20;;;;;;;20.96;59.28;101428.53;4986423;28;20045;-71
2022/07/30 07:42:53;;;;;;;14.68;3.25;;;;;;;21.21;59.08;101432.31;4979531;28;20049;-72
2022/07/30 07:45:19;;;;;;;6.63;2.55;;;;;;;21.48;58.25;101424.00;4991564;28;20075;-73
2022/07/30 07:47:46;;;;;;;14.38;2.75;;;;;;;21.75;57.91;101422.00;4974218;28;20046;-75
2022/07/30 07:50:14;;;;;;;5.65;2.75;;;;;;;21.77;57.87;101419.84;4983337;28;20054;-73
2022/07/30 07:52:39;;;;;;;10.80;3.00;;;;;;;21.84;57.32;101426.19;4987228;28;20018;-73
2022/07/30 07:55:06;;;;;;;21.10;3.30;;;;;;;21.57;58.76;101426.28;4989964;28;20027;-72
2022/07/30 07:57:40;;;;;;;11.02;3.58;;;;;;;21.95;56.42;101431.84;4979386;28;20027;-72
2022/07/30 08:00:08;;;;;;;9.60;3.03;;;;;;;21.82;57.52;101440.19;4985504;28;20393;-69
2022/07/30 08:02:33;;;;;;;10.63;2.95;;;;;;;21.74;56.71;101434.94;4981341;28;20114;-71
2022/07/30 08:04:58;;;;;;;9.30;3.40;;;;;;;22.01;57.05;101432.03;4987737;28;20545;-71
2022/07/30 08:07:23;;;;;;;11.00;2.90;;;;;;;21.84;55.95;101438.06;4981502;28;20117;-71
2022/07/30 08:09:50;;;;;;;12.73;3.00;;;;;;;21.56;56.40;101440.28;4991067;28;20050;-72
2022/07/30 08:12:16;;;;;;;15.77;2.75;;;;;;;21.93;55.17;101447.78;4980797;28;20065;-71
2022/07/30 08:14:42;;;;;;;9.13;3.17;;;;;;;22.12;54.23;101439.66;5006964;28;20026;-70
2022/07/30 08:17:08;;;;;;;13.30;3.20;;;;;;;21.44;56.43;101442.00;4990737;28;20499;-71
2022/07/30 08:19:33;;;;;;;9.45;2.85;;;;;;;22.04;55.85;101437.09;4977193;28;20026;-71
2022/07/30 08:21:59;;;;;;;10.85;3.20;;;;;;;22.60;53.71;101441.88;4985791;28;20030;-71
2022/07/30 08:24:24;;;;;;;8.25;3.35;;;;;;;21.93;54.67;101442.25;4985623;28;20026;-70
2022/07/30 08:26:50;;;;;;;11.65;3.13;;;;;;;22.33;53.89;101436.53;4984169;28;20026;-71
2022/07/30 08:29:16;;;;;;;17.75;3.47;;;;;;;22.55;52.58;101445.31;4978547;28;20027;-70
2022/07/30 08:31:41;;;;;;;13.40;3.45;;;;;;;22.34;52.97;101442.91;4982352;28;20042;-70
2022/07/30 08:34:07;;;;;;;13.13;3.47;;;;;;;22.36;53.13;101447.13;4979132;28;20031;-71
2022/07/30 08:36:32;;;;;;;12.73;3.42;;;;;;;22.34;53.03;101438.25;4983240;28;20101;-73
2022/07/30 08:38:57;;;;;;;9.63;3.30;;;;;;;22.82;52.55;101448.72;4972892;28;20053;-70
2022/07/30 08:41:24;;;;;;;11.07;3.83;;;;;;;22.43;53.19;101442.44;4985527;28;20164;-72
2022/07/30 08:43:49;;;;;;;10.15;3.10;;;;;;;22.60;52.34;101453.75;4981432;28;20037;-71
2022/07/30 08:46:17;;;;;;;10.02;2.85;;;;;;;22.46;52.94;101452.16;4982814;28;20487;-73
2022/07/30 08:48:43;;;;;;;10.68;2.83;;;;;;;23.17;51.19;101442.69;4981722;28;20023;-71
2022/07/30 08:51:09;;;;;;;13.07;3.83;;;;;;;23.06;51.27;101440.66;4986821;28;20030;-71
2022/07/30 08:53:35;;;;;;;6.53;3.30;;;;;;;23.23;50.22;101447.31;4988537;28;20022;-71
2022/07/30 08:56:01;;;;;;;8.80;3.30;;;;;;;23.51;50.77;101444.88;4987449;28;20030;-71
2022/07/30 08:58:29;;;;;;;15.13;3.60;;;;;;;23.72;50.07;101445.50;4992974;23;20035;-71
2022/07/30 09:00:55;;;;;;;5.15;3.40;;;;;;;23.02;50.95;101454.94;4975637;28;20034;-70
2022/07/30 09:03:21;;;;;;;12.52;3.38;;;;;;;23.28;50.87;101447.47;4993100;28;20113;-70
2022/07/30 09:05:46;;;;;;;19.52;3.47;;;;;;;23.22;50.89;101442.84;4975863;28;20117;-69
2022/07/30 09:08:12;;;;;;;11.23;3.42;;;;;;;24.09;48.85;101451.84;4992648;28;20408;-70
2022/07/30 09:10:37;;;;;;;10.52;2.85;;;;;;;23.55;47.82;101451.63;4975412;28;20064;-70
2022/07/30 09:13:03;;;;;;;16.90;3.03;;;;;;;23.50;47.77;101459.75;4976255;28;20472;-69
2022/07/30 09:15:28;;;;;;;11.02;2.72;;;;;;;23.40;48.89;101453.91;4980271;28;20156;-70
2022/07/30 09:17:59;;;;;;;12.93;3.63;;;;;;;23.41;50.14;101472.22;4979855;28;20022;-69
2022/07/30 09:20:31;;;;;;;11.63;2.88;;;;;;;23.86;49.07;101458.09;4980099;28;20022;-70
2022/07/30 09:22:59;;;;;;;7.07;3.05;;;;;;;23.58;48.83;101466.06;4980003;28;20041;-70
2022/07/30 09:25:38;;;;;;;11.75;4.03;;;;;;;23.21;51.31;101463.25;4997407;28;20121;-70
2022/07/30 09:28:05;;;;;;;12.23;3.20;;;;;;;23.62;50.82;101472.88;4979359;28;20034;-72
2022/07/30 09:30:52;;;;;;;10.82;3.40;;;;;;;23.68;49.43;101471.94;4997633;28;20026;-69
2022/07/30 09:33:38;;;;;;;10.80;3.35;;;;;;;23.75;47.57;101465.25;4979691;28;20060;-70
2022/07/30 09:36:08;;;;;;;9.63;2.80;;;;;;;23.97;47.19;101462.84;4979363;28;20059;-71
2022/07/30 09:38:42;;;;;;;7.90;3.10;;;;;;;24.49;46.68;101468.75;4980355;28;20034;-72
2022/07/30 09:41:07;;;;;;;9.70;3.30;;;;;;;24.57;47.06;101471.16;4996998;28;20281;-72
2022/07/30 09:43:48;;;;;;;10.98;3.70;;;;;;;24.03;48.61;101475.75;4995415;28;20088;-72
2022/07/30 09:46:14;;;;;;;7.40;2.85;;;;;;;23.63;47.99;101469.88;4977791;28;20033;-70
2022/07/30 09:48:39;;;;;;;13.38;4.18;;;;;;;23.74;48.72;101471.03;4969634;28;20397;-70
2022/07/30 09:51:05;;;;;;;13.52;4.30;;;;;;;23.92;49.04;101468.22;4956106;28;20084;-71
2022/07/30 09:53:31;;;;;;;11.10;3.90;;;;;;;24.32;47.71;101470.44;4972331;28;20050;-70
2022/07/30 09:55:58;;;;;;;9.48;3.42;;;;;;;24.09;47.87;101480.34;4970808;28;20019;-71
2022/07/30 09:58:35;;;;;;;11.25;3.25;;;;;;;24.00;48.72;101465.16;4992189;28;20112;-71
2022/07/30 10:01:01;;;;;;;5.50;3.05;;;;;;;23.63;49.83;101486.44;4984937;28;20065;-71
2022/07/30 10:03:26;;;;;;;11.38;2.90;;;;;;;23.76;49.71;101479.94;4976070;28;20061;-71
2022/07/30 10:05:54;;;;;;;7.82;2.92;;;;;;;23.88;49.72;101472.53;4972389;28;20089;-72
2022/07/30 10:08:36;;;;;;;6.95;3.28;;;;;;;24.34;48.25;101471.09;4974410;28;20023;-72
2022/07/30 10:11:02;;;;;;;12.63;3.10;;;;;;;24.45;48.28;101484.16;4961992;28;20034;-73
2022/07/30 10:13:28;;;;;;;7.47;2.63;;;;;;;24.75;47.94;101477.72;4976650;28;20060;-72
2022/07/30 10:15:54;;;;;;;7.18;2.72;;;;;;;25.16;47.21;101483.22;4970676;28;20160;-73
2022/07/30 10:18:19;;;;;;;11.38;4.32;;;;;;;24.95;47.47;101472.69;4969180;28;20033;-72
2022/07/30 10:20:45;;;;;;;7.65;3.58;;;;;;;24.45;48.43;101478.63;4969029;28;20792;-72
2022/07/30 10:23:11;;;;;;;20.42;4.40;;;;;;;24.29;48.82;101484.75;4967686;28;20030;-72
2022/07/30 10:25:37;;;;;;;12.05;2.65;;;;;;;24.78;48.50;101477.25;4966681;28;20026;-72
2022/07/30 10:28:02;;;;;;;15.25;3.20;;;;;;;23.93;49.21;101485.66;4954686;28;20160;-72
2022/07/30 10:30:30;;;;;;;7.80;3.05;;;;;;;24.06;47.92;101480.81;4971523;28;20030;-72
2022/07/30 10:32:57;;;;;;;11.07;2.95;;;;;;;24.73;47.69;101485.44;4975685;28;20046;-72
2022/07/30 10:35:23;;;;;;;11.57;3.20;;;;;;;24.57;48.51;101482.25;4970024;28;20389;-72
2022/07/30 10:37:50;;;;;;;8.65;3.03;;;;;;;24.12;49.27;101483.72;4988208;28;20034;-72
2022/07/30 10:40:32;;;;;;;9.30;3.17;;;;;;;23.82;49.66;101490.91;4989147;28;20030;-71
2022/07/30 10:43:34;;;;;;;8.00;3.03;;;;;;;24.19;48.58;101487.22;4968379;28;20027;-71
2022/07/30 10:46:28;;;;;;;12.88;3.05;;;;;;;23.36;51.94;101480.34;4978392;28;20048;-72
2022/07/30 10:48:54;;;;;;;9.77;2.78;;;;;;;23.51;51.45;101494.63;4988040;28;20042;-71
2022/07/30 10:51:21;;;;;;;7.15;2.60;;;;;;;24.01;50.26;101483.44;4964136;28;20026;-73
2022/07/30 10:53:47;;;;;;;7.03;2.88;;;;;;;23.72;50.16;101485.06;4979726;28;20027;-72
2022/07/30 10:56:23;;;;;;;11.85;4.35;;;;;;;23.56;52.03;101492.03;4967526;28;20015;-72
2022/07/30 10:59:10;;;;;;;15.25;4.38;;;;;;;22.87;55.70;101495.84;4976385;28;20034;-72
2022/07/30 11:01:48;;;;;;;7.78;4.25;;;;;;;22.79;56.14;101495.25;4994565;28;20057;-72
2022/07/30 11:04:24;;;;;;;21.20;6.30;;;;;;;22.84;56.46;101499.03;4981450;28;20022;-72
2022/07/30 11:06:51;;;;;;;14.90;4.20;;;;;;;22.71;54.99;101493.63;4982342;28;20026;-72
2022/07/30 11:09:34;;;;;;;10.55;4.40;;;;;;;22.96;54.92;101499.19;4995511;28;20087;-72
2022/07/30 11:11:59;;;;;;;12.18;3.65;;;;;;;22.97;54.19;101495.38;4984456;28;20053;-72
2022/07/30 11:14:46;;;;;;;12.65;3.72;;;;;;;23.34;53.11;101496.28;5003735;28;20022;-72
2022/07/30 11:17:16;;;;;;;9.02;3.40;;;;;;;23.35;52.76;101500.75;4969509;28;20045;-72
2022/07/30 11:20:04;;;;;;;18.38;7.03;;;;;;;23.49;54.05;101502.31;4969236;28;20026;-72
2022/07/30 11:22:37;;;;;;;13.75;3.13;;;;;;;23.76;51.64;101496.50;4980505;28;20018;-72
2022/07/30 11:25:04;;;;;;;6.43;3.00;;;;;;;23.53;52.59;101491.63;4974728;28;20018;-72